createdAt,value
2019-01-31T00:01:12.262Z,73.20
2019-01-31T00:03:37.326Z,73.30
2019-01-31T00:06:23.093Z,73.80
2019-01-31T00:09:00.326Z,73.70
2019-01-31T00:11:50.059Z,73.80
2019-01-31T00:14:15.202Z,73.50
2019-01-31T00:16:58.385Z,73.90
2019-01-31T00:19:26.455Z,73.90
2019-01-31T00:22:15.706Z,74.00
2019-01-31T00:24:52.845Z,73.70
2019-01-31T00:27:43.402Z,73.80
2019-01-31T00:30:13.912Z,73.70
2019-01-31T00:32:39.122Z,73.60
2019-01-31T00:35:19.502Z,73.50
2019-01-31T00:38:05.913Z,73.60
2019-01-31T00:40:45.602Z,73.50
2019-01-31T00:43:19.192Z,73.60
2019-01-31T00:46:09.581Z,73.40
2019-01-31T00:49:09.657Z,73.50
2019-01-31T00:51:34.708Z,73.50
2019-01-31T00:54:05.840Z,73.60
2019-01-31T00:56:46.029Z,73.70
2019-01-31T00:59:22.642Z,74.00
2019-01-31T01:02:17.716Z,73.80
2019-01-31T01:04:49.067Z,74.00
2019-01-31T01:07:38.022Z,74.60
2019-01-31T01:10:12.131Z,74.60
2019-01-31T01:12:58.200Z,74.90
2019-01-31T01:15:35.292Z,75.10
2019-01-31T01:18:09.409Z,74.90
2019-01-31T01:20:43.192Z,74.60
2019-01-31T01:26:06.005Z,74.60
2019-01-31T01:28:47.904Z,74.90
2019-01-31T01:31:43.934Z,74.70
2019-01-31T01:34:29.842Z,74.90
2019-01-31T01:37:12.479Z,74.90
2019-01-31T01:39:58.722Z,74.90
2019-01-31T01:42:23.926Z,74.90
2019-01-31T01:44:58.016Z,75.70
2019-01-31T01:47:41.063Z,75.10
2019-01-31T01:50:15.087Z,75.00
2019-01-31T01:52:40.112Z,75.00
2019-01-31T01:55:35.533Z,74.80
2019-01-31T01:58:06.550Z,74.90
2019-01-31T02:00:48.102Z,74.90
2019-01-31T02:03:31.214Z,75.20
2019-01-31T02:06:02.474Z,75.20
2019-01-31T02:08:42.565Z,75.30
2019-01-31T02:11:22.251Z,75.40
2019-01-31T02:13:59.572Z,75.60
2019-01-31T02:16:36.235Z,75.90
2019-01-31T02:19:01.267Z,76.20
2019-01-31T02:21:29.014Z,76.10
2019-01-31T02:23:56.834Z,75.90
2019-01-31T02:26:38.746Z,75.70
2019-01-31T02:29:15.850Z,75.70
2019-01-31T02:31:40.891Z,75.40
2019-01-31T02:34:14.681Z,75.30
2019-01-31T02:36:45.499Z,75.40
2019-01-31T02:39:13.616Z,75.00
2019-01-31T02:42:04.502Z,74.50
2019-01-31T02:44:48.083Z,74.10
2019-01-31T02:47:27.936Z,74.00
2019-01-31T02:49:56.120Z,73.80
2019-01-31T02:52:30.113Z,73.70
2019-01-31T02:54:55.130Z,73.60
2019-01-31T02:57:34.738Z,73.40
2019-01-31T03:00:23.766Z,73.50
2019-01-31T03:02:48.923Z,73.50
2019-01-31T03:05:16.713Z,73.10
2019-01-31T03:07:56.595Z,73.10
2019-01-31T03:10:27.640Z,72.30
2019-01-31T03:12:52.783Z,71.50
2019-01-31T03:15:23.870Z,71.40
2019-01-31T03:17:48.907Z,71.20
2019-01-31T03:20:19.770Z,70.70
2019-01-31T03:23:19.622Z,71.00
2019-01-31T03:25:44.789Z,70.90
2019-01-31T03:28:18.644Z,70.90
2019-01-31T03:30:46.417Z,70.90
2019-01-31T03:33:14.735Z,70.70
2019-01-31T03:35:42.535Z,70.70
2019-01-31T03:40:56.963Z,70.60
2019-01-31T03:43:27.991Z,70.60
2019-01-31T03:45:56.058Z,70.40
2019-01-31T03:48:43.951Z,70.90
2019-01-31T03:51:09.035Z,70.70
2019-01-31T03:53:46.479Z,70.90
2019-01-31T03:56:29.689Z,70.70
2019-01-31T03:58:54.732Z,71.00
2019-01-31T04:01:45.916Z,71.20
2019-01-31T04:04:22.920Z,71.60
2019-01-31T04:06:44.238Z,71.70
2019-01-31T04:09:07.180Z,71.50
2019-01-31T04:11:28.498Z,71.00
2019-01-31T04:13:49.732Z,71.20
2019-01-31T04:16:10.931Z,72.90
2019-01-31T04:18:32.174Z,71.60
2019-01-31T04:20:53.605Z,70.40
2019-01-31T04:23:14.966Z,70.20
2019-01-31T04:25:36.174Z,69.90
2019-01-31T04:27:57.539Z,69.60
2019-01-31T04:30:18.893Z,69.30
2019-01-31T04:32:40.200Z,69.10
2019-01-31T04:35:03.989Z,69.30
2019-01-31T04:37:25.324Z,69.40
2019-01-31T04:39:46.850Z,69.10
2019-01-31T04:42:08.084Z,69.40
2019-01-31T04:44:29.287Z,69.60
2019-01-31T04:46:50.822Z,70.00
2019-01-31T04:49:12.112Z,69.00
2019-01-31T04:51:33.429Z,69.00
2019-01-31T04:53:54.744Z,69.10
2019-01-31T04:56:15.988Z,68.80
2019-01-31T04:58:37.356Z,68.50
2019-01-31T05:00:58.554Z,68.00
2019-01-31T05:03:20.397Z,68.20
2019-01-31T05:05:41.606Z,68.10
2019-01-31T05:08:03.036Z,68.10
2019-01-31T05:10:24.229Z,68.00
2019-01-31T05:12:45.564Z,68.80
2019-01-31T05:15:32.935Z,68.50
2019-01-31T05:17:54.250Z,68.20
2019-01-31T05:20:16.246Z,68.30
2019-01-31T05:22:37.523Z,68.20
2019-01-31T05:24:58.733Z,67.70
2019-01-31T05:27:20.186Z,67.90
2019-01-31T05:29:41.446Z,67.90
2019-01-31T05:32:03.016Z,67.80
2019-01-31T05:34:24.409Z,67.70
2019-01-31T05:36:45.607Z,68.50
2019-01-31T05:39:06.820Z,69.10
2019-01-31T05:41:28.011Z,69.20
2019-01-31T05:43:49.249Z,69.30
2019-01-31T05:46:10.450Z,69.60
2019-01-31T05:48:31.674Z,69.70
2019-01-31T05:50:52.901Z,69.90
2019-01-31T05:53:14.398Z,70.30
2019-01-31T05:55:35.706Z,70.50
2019-01-31T05:57:56.899Z,70.90
2019-01-31T06:00:24.270Z,71.20
2019-01-31T06:02:45.498Z,72.90
2019-01-31T06:05:07.715Z,72.50
2019-01-31T06:07:29.418Z,73.60
2019-01-31T06:09:50.653Z,74.00
2019-01-31T06:12:12.246Z,74.30
2019-01-31T06:14:33.498Z,75.30
2019-01-31T06:16:54.980Z,75.60
2019-01-31T06:19:16.278Z,75.90
2019-01-31T06:21:39.037Z,75.70
2019-01-31T06:24:00.352Z,76.10
2019-01-31T06:26:21.834Z,76.70
2019-01-31T06:28:44.017Z,77.30
2019-01-31T06:31:05.415Z,78.20
2019-01-31T06:33:28.452Z,78.70
2019-01-31T06:35:49.806Z,78.90
2019-01-31T06:38:11.035Z,79.70
2019-01-31T06:40:32.532Z,79.20
2019-01-31T06:42:53.775Z,79.60
2019-01-31T06:45:17.116Z,79.80
2019-01-31T06:47:38.627Z,79.80
2019-01-31T06:49:59.848Z,80.00
2019-01-31T06:52:21.047Z,80.40
2019-01-31T06:54:42.257Z,80.40
2019-01-31T06:57:03.463Z,80.50
2019-01-31T06:59:24.699Z,81.00
2019-01-31T07:01:46.199Z,81.90
2019-01-31T07:04:07.404Z,82.60
2019-01-31T07:06:28.719Z,83.00
2019-01-31T07:08:50.049Z,84.20
2019-01-31T07:11:11.330Z,85.00
2019-01-31T07:13:33.970Z,85.40
2019-01-31T07:15:55.353Z,86.30
2019-01-31T07:18:16.558Z,86.90
2019-01-31T07:20:37.770Z,87.40
2019-01-31T07:22:58.982Z,88.20
2019-01-31T07:25:21.962Z,88.20
2019-01-31T07:27:45.057Z,88.10
2019-01-31T07:30:11.798Z,88.30
2019-01-31T07:32:52.986Z,88.00
2019-01-31T07:35:14.236Z,88.50
2019-01-31T07:37:35.544Z,89.20
2019-01-31T07:39:56.889Z,88.70
2019-01-31T07:42:18.087Z,89.00
2019-01-31T07:44:39.328Z,89.30
2019-01-31T07:47:00.529Z,89.50
2019-01-31T07:49:21.743Z,89.50
2019-01-31T07:51:42.956Z,89.50
2019-01-31T07:54:04.579Z,89.90
2019-01-31T07:56:32.172Z,90.00
2019-01-31T07:58:51.094Z,89.70
2019-01-31T08:07:31.417Z,89.40
2019-01-31T08:09:52.928Z,88.90
2019-01-31T08:12:17.399Z,89.20
2019-01-31T08:17:30.035Z,89.30
2019-01-31T08:19:51.271Z,89.20
2019-01-31T08:22:12.512Z,89.50
2019-01-31T08:24:33.829Z,89.50
2019-01-31T08:26:56.021Z,89.50
2019-01-31T08:29:17.617Z,89.40
2019-01-31T08:31:38.814Z,89.00
2019-01-31T08:34:00.029Z,89.60
2019-01-31T08:36:21.254Z,88.80
2019-01-31T08:38:42.494Z,88.80
2019-01-31T08:41:03.707Z,89.30
2019-01-31T08:43:24.929Z,88.70
2019-01-31T08:45:46.166Z,88.80
2019-01-31T08:48:07.410Z,88.70
2019-01-31T08:50:29.338Z,88.90
2019-01-31T08:52:50.585Z,88.90
2019-01-31T08:55:11.863Z,88.70
2019-01-31T08:57:33.089Z,88.10
2019-01-31T08:59:54.275Z,88.30
2019-01-31T09:02:15.510Z,88.10
2019-01-31T09:04:37.842Z,88.00
2019-01-31T09:06:59.070Z,87.80
2019-01-31T09:09:20.350Z,87.60
2019-01-31T09:11:41.787Z,87.60
2019-01-31T09:14:03.007Z,87.50
2019-01-31T09:16:24.270Z,87.30
2019-01-31T09:18:45.482Z,87.10
2019-01-31T09:24:04.199Z,87.20
2019-01-31T09:26:45.729Z,87.10
2019-01-31T09:29:30.587Z,86.50
2019-01-31T09:32:10.901Z,86.60
2019-01-31T09:34:53.905Z,86.20
2019-01-31T09:37:34.297Z,85.80
2019-01-31T09:40:20.082Z,85.60
2019-01-31T09:42:55.288Z,84.40
2019-01-31T09:45:37.081Z,83.70
2019-01-31T09:48:20.329Z,84.30
2019-01-31T09:50:45.547Z,83.40
2019-01-31T09:53:36.379Z,82.90
2019-01-31T09:56:30.313Z,82.50
2019-01-31T09:59:07.291Z,82.40
2019-01-31T10:01:52.521Z,81.60
2019-01-31T10:04:33.965Z,80.60
2019-01-31T10:06:58.979Z,80.70
2019-01-31T10:09:33.139Z,81.50
2019-01-31T10:12:06.469Z,81.70
2019-01-31T10:14:39.380Z,81.70
2019-01-31T10:17:10.107Z,81.90
2019-01-31T10:19:59.207Z,82.20
2019-01-31T10:22:54.252Z,81.80
2019-01-31T10:25:46.653Z,82.60
2019-01-31T10:28:37.736Z,82.80
2019-01-31T10:31:08.972Z,82.40
2019-01-31T10:33:54.947Z,82.00
2019-01-31T10:36:46.897Z,82.30
2019-01-31T10:39:26.941Z,82.60
2019-01-31T10:41:51.966Z,81.80
2019-01-31T10:44:33.534Z,81.60
2019-01-31T10:47:16.064Z,80.80
2019-01-31T10:49:56.146Z,80.40
2019-01-31T10:52:37.735Z,81.00
2019-01-31T10:55:02.853Z,81.00
2019-01-31T10:57:47.050Z,79.80
2019-01-31T11:00:28.959Z,79.50
2019-01-31T11:03:25.887Z,77.60
2019-01-31T11:06:14.971Z,77.40
2019-01-31T11:08:49.041Z,77.90
2019-01-31T11:11:29.550Z,77.80
2019-01-31T11:14:16.012Z,76.90
2019-01-31T11:17:13.225Z,76.90
2019-01-31T11:19:50.451Z,76.20
2019-01-31T11:22:32.405Z,75.40
2019-01-31T11:25:14.335Z,73.90
2019-01-31T11:27:59.205Z,72.20
2019-01-31T11:30:42.276Z,71.30
2019-01-31T11:33:28.033Z,70.60
2019-01-31T11:36:26.636Z,69.10
2019-01-31T11:39:20.248Z,64.30
2019-01-31T11:42:06.819Z,63.90
2019-01-31T11:44:51.550Z,64.60
2019-01-31T11:47:45.518Z,62.30
2019-01-31T11:50:16.703Z,63.50
2019-01-31T11:52:41.707Z,64.60
2019-01-31T11:55:15.559Z,67.40
2019-01-31T11:58:01.305Z,68.40
2019-01-31T12:00:24.408Z,68.40
2019-01-31T12:02:54.678Z,68.50
2019-01-31T12:05:08.735Z,69.00
2019-01-31T12:07:36.980Z,68.30
2019-01-31T12:09:58.361Z,68.60
2019-01-31T12:12:19.683Z,69.10
2019-01-31T12:14:41.006Z,69.10
2019-01-31T12:17:02.649Z,69.60
2019-01-31T12:19:24.580Z,67.10
2019-01-31T12:21:45.798Z,66.60
2019-01-31T12:24:16.072Z,67.40
2019-01-31T12:26:30.114Z,66.80
2019-01-31T12:28:51.332Z,67.30
2019-01-31T12:31:12.537Z,65.70
2019-01-31T12:33:33.731Z,66.80
2019-01-31T12:35:54.954Z,67.20
2019-01-31T12:38:16.171Z,66.10
2019-01-31T12:40:37.384Z,65.00
2019-01-31T12:42:58.592Z,64.60
2019-01-31T12:45:19.811Z,65.30
2019-01-31T12:47:41.035Z,66.20
2019-01-31T12:50:05.267Z,65.30
2019-01-31T12:52:26.834Z,64.00
2019-01-31T12:54:48.026Z,64.10
2019-01-31T12:57:09.248Z,64.70
2019-01-31T12:59:30.443Z,63.70
2019-01-31T13:01:51.647Z,64.00
2019-01-31T13:04:12.853Z,64.00
2019-01-31T13:06:34.151Z,64.00
2019-01-31T13:08:55.374Z,64.40
2019-01-31T13:11:16.614Z,64.10
2019-01-31T13:13:45.893Z,64.30
2019-01-31T13:16:00.963Z,64.40
2019-01-31T13:18:22.233Z,64.80
2019-01-31T13:20:43.550Z,65.10
2019-01-31T13:23:04.759Z,64.80
2019-01-31T13:25:27.024Z,65.80
2019-01-31T13:27:48.325Z,65.90
2019-01-31T13:30:15.347Z,65.70
2019-01-31T13:32:36.622Z,66.80
2019-01-31T13:34:57.874Z,67.20
2019-01-31T13:37:19.155Z,67.50
2019-01-31T13:39:40.346Z,67.80
2019-01-31T13:42:01.924Z,68.10
2019-01-31T13:44:23.368Z,68.10
2019-01-31T13:46:44.578Z,68.20
2019-01-31T13:49:05.774Z,68.60
2019-01-31T13:51:26.984Z,69.70
2019-01-31T13:53:48.210Z,69.30
2019-01-31T13:56:09.530Z,68.50
2019-01-31T13:58:30.777Z,68.50
2019-01-31T14:00:51.982Z,68.70
2019-01-31T14:03:14.201Z,68.10
2019-01-31T14:05:36.697Z,66.90
2019-01-31T14:07:57.912Z,66.50
2019-01-31T14:10:21.323Z,65.00
2019-01-31T14:12:42.551Z,65.20
2019-01-31T14:15:10.024Z,65.10
2019-01-31T14:17:31.260Z,65.30
2019-01-31T14:19:52.486Z,65.30
2019-01-31T14:22:20.838Z,64.90
2019-01-31T14:24:43.873Z,64.20
2019-01-31T14:27:06.370Z,63.90
2019-01-31T14:29:27.572Z,64.10
2019-01-31T14:31:48.802Z,64.10
2019-01-31T14:34:09.993Z,64.60
2019-01-31T14:36:31.203Z,64.10
2019-01-31T14:38:52.521Z,64.40
2019-01-31T14:41:16.468Z,64.60
2019-01-31T14:43:36.889Z,64.50
2019-01-31T14:45:58.115Z,64.50
2019-01-31T14:48:19.355Z,64.60
2019-01-31T14:50:40.598Z,64.60
2019-01-31T14:53:04.558Z,64.40
2019-01-31T14:55:25.878Z,64.60
2019-01-31T14:57:47.144Z,64.50
2019-01-31T15:00:15.176Z,64.10
2019-01-31T15:02:36.531Z,64.00
2019-01-31T15:04:57.848Z,64.00
2019-01-31T15:07:19.051Z,64.10
2019-01-31T15:09:40.312Z,63.70
2019-01-31T15:12:02.183Z,64.10
2019-01-31T15:14:31.617Z,63.70
2019-01-31T15:16:46.629Z,64.30
2019-01-31T15:19:07.979Z,64.20
2019-01-31T15:21:30.388Z,64.30
2019-01-31T15:23:51.711Z,64.60
2019-01-31T15:26:13.287Z,65.30
2019-01-31T15:28:34.600Z,65.40
2019-01-31T15:30:55.811Z,65.80
2019-01-31T15:33:18.114Z,66.20
2019-01-31T15:35:39.453Z,66.90
2019-01-31T15:38:00.739Z,67.50
2019-01-31T15:40:49.860Z,68.30
2019-01-31T15:43:11.118Z,68.40
2019-01-31T15:45:32.318Z,68.20
2019-01-31T15:47:53.517Z,68.30
2019-01-31T15:50:16.050Z,69.10
2019-01-31T15:52:37.278Z,69.70
2019-01-31T15:54:58.491Z,70.20
2019-01-31T15:57:19.797Z,70.70
2019-01-31T15:59:41.006Z,70.90
2019-01-31T16:02:02.207Z,71.40
2019-01-31T16:04:23.477Z,72.50
2019-01-31T16:06:44.926Z,72.10
2019-01-31T16:09:06.258Z,73.10
2019-01-31T16:11:27.514Z,73.20
2019-01-31T16:13:48.887Z,72.50
2019-01-31T16:16:10.210Z,72.30
2019-01-31T16:18:31.489Z,72.00
2019-01-31T16:20:52.739Z,72.70
2019-01-31T16:23:14.204Z,73.20
2019-01-31T16:25:35.508Z,73.40
2019-01-31T16:27:56.731Z,72.60
2019-01-31T16:30:18.598Z,72.10
2019-01-31T16:32:40.068Z,71.80
2019-01-31T16:35:04.417Z,71.70
2019-01-31T16:37:24.853Z,71.70
2019-01-31T16:39:46.557Z,71.60
2019-01-31T16:42:07.899Z,71.80
2019-01-31T16:44:49.019Z,72.10
2019-01-31T16:47:11.039Z,72.00
2019-01-31T16:49:32.910Z,72.20
2019-01-31T16:51:54.137Z,72.60
2019-01-31T16:54:15.451Z,72.70
2019-01-31T16:56:36.673Z,72.80
2019-01-31T16:58:58.157Z,73.10
2019-01-31T17:01:19.407Z,74.50
2019-01-31T17:03:40.876Z,74.00
2019-01-31T17:06:02.797Z,74.00
2019-01-31T17:08:24.364Z,74.00
2019-01-31T17:10:46.037Z,74.30
2019-01-31T17:13:07.608Z,74.20
2019-01-31T17:15:29.999Z,74.50
2019-01-31T17:17:51.260Z,74.60
2019-01-31T17:20:52.277Z,74.70
2019-01-31T17:23:16.048Z,74.40
2019-01-31T17:25:37.501Z,74.50
2019-01-31T17:27:59.288Z,74.30
2019-01-31T17:30:23.106Z,74.50
2019-01-31T17:32:44.770Z,74.30
2019-01-31T17:35:06.195Z,74.50
2019-01-31T17:37:28.261Z,74.50
2019-01-31T17:39:50.815Z,74.40
2019-01-31T17:42:12.236Z,74.90
2019-01-31T17:44:34.266Z,74.90
2019-01-31T17:46:55.997Z,74.80
2019-01-31T17:49:17.531Z,74.80
2019-01-31T17:51:39.224Z,74.60
2019-01-31T17:54:02.666Z,74.40
2019-01-31T17:56:23.890Z,74.10
2019-01-31T17:58:46.930Z,74.00
2019-01-31T18:01:08.612Z,73.80
2019-01-31T18:03:30.859Z,73.50
2019-01-31T18:05:52.387Z,74.30
2019-01-31T18:08:13.989Z,73.30
2019-01-31T18:10:35.498Z,72.80
2019-01-31T18:12:58.506Z,73.10
2019-01-31T18:15:20.354Z,73.00
2019-01-31T18:17:41.882Z,73.10
2019-01-31T18:20:13.426Z,73.30
2019-01-31T18:22:35.035Z,73.10
2019-01-31T18:24:57.753Z,73.40
2019-01-31T18:27:19.581Z,72.40
2019-01-31T18:29:42.459Z,72.00
2019-01-31T18:32:04.275Z,71.80
2019-01-31T18:34:25.949Z,72.10
2019-01-31T18:36:48.565Z,72.40
2019-01-31T18:39:11.138Z,72.10
2019-01-31T18:41:32.962Z,72.30
2019-01-31T18:43:55.555Z,73.00
2019-01-31T18:46:18.306Z,73.00
2019-01-31T18:48:41.041Z,72.30
2019-01-31T18:51:03.700Z,71.90
2019-01-31T18:53:26.550Z,71.70
2019-01-31T18:55:49.915Z,71.70
2019-01-31T18:58:12.662Z,71.00
2019-01-31T19:00:42.577Z,71.10
2019-01-31T19:03:04.621Z,71.00
2019-01-31T19:05:27.360Z,70.80
2019-01-31T19:07:50.111Z,70.60
2019-01-31T19:10:12.866Z,70.00
2019-01-31T19:12:35.505Z,70.10
2019-01-31T19:14:57.318Z,70.00
2019-01-31T19:17:28.885Z,69.70
2019-01-31T19:19:50.645Z,71.10
2019-01-31T19:22:14.752Z,69.80
2019-01-31T19:24:37.340Z,69.00
2019-01-31T19:27:00.679Z,68.90
2019-01-31T19:29:24.524Z,68.20
2019-01-31T19:31:48.470Z,68.20
2019-01-31T19:34:11.479Z,68.00
2019-01-31T19:36:34.523Z,67.90
2019-01-31T19:38:57.579Z,67.60
2019-01-31T19:41:20.505Z,67.10
2019-01-31T19:43:43.178Z,67.10
2019-01-31T19:46:16.264Z,66.70
2019-01-31T19:48:52.039Z,66.70
2019-01-31T19:51:15.058Z,66.50
2019-01-31T19:53:38.242Z,67.20
2019-01-31T19:56:02.236Z,67.00
2019-01-31T19:58:25.922Z,67.00
2019-01-31T20:01:11.138Z,66.80
2019-01-31T20:03:34.005Z,66.50
2019-01-31T20:05:57.195Z,65.80
2019-01-31T20:08:21.020Z,65.90
2019-01-31T20:11:06.161Z,65.70
2019-01-31T20:13:29.359Z,65.40
2019-01-31T20:15:52.231Z,65.60
2019-01-31T20:18:15.261Z,66.10
2019-01-31T20:20:38.594Z,65.80
2019-01-31T20:23:02.297Z,66.50
2019-01-31T20:25:25.791Z,68.00
2019-01-31T20:27:49.098Z,69.70
2019-01-31T20:30:16.717Z,71.40
2019-01-31T20:32:40.106Z,73.60
2019-01-31T20:35:04.248Z,75.00
2019-01-31T20:37:27.445Z,75.90
2019-01-31T20:39:50.584Z,77.60
2019-01-31T20:42:13.631Z,78.40
2019-01-31T20:44:36.431Z,79.30
2019-01-31T20:46:59.306Z,80.10
2019-01-31T20:49:21.969Z,81.10
2019-01-31T20:51:44.755Z,82.40
2019-01-31T20:54:09.157Z,82.50
2019-01-31T20:56:33.559Z,83.50
2019-01-31T20:58:57.062Z,83.50
2019-01-31T21:01:20.730Z,83.80
2019-01-31T21:03:43.611Z,84.10
2019-01-31T21:06:06.662Z,84.00
2019-01-31T21:08:30.125Z,84.10
2019-01-31T21:10:53.707Z,84.80
2019-01-31T21:13:16.434Z,84.80
2019-01-31T21:15:40.381Z,85.40
2019-01-31T21:18:03.246Z,85.70
2019-01-31T21:20:26.780Z,86.30
2019-01-31T21:22:48.755Z,86.40
2019-01-31T21:25:13.067Z,85.90
2019-01-31T21:27:36.214Z,85.70
2019-01-31T21:29:58.153Z,86.00
2019-01-31T21:32:21.039Z,86.00
2019-01-31T21:34:43.146Z,85.90
2019-01-31T21:37:04.907Z,84.80
2019-01-31T21:39:26.510Z,84.60
2019-01-31T21:41:48.085Z,84.10
2019-01-31T21:44:10.090Z,84.00
2019-01-31T21:46:31.560Z,83.90
2019-01-31T21:49:14.853Z,83.60
2019-01-31T21:51:36.078Z,83.60
2019-01-31T21:53:57.546Z,83.50
2019-01-31T21:56:19.039Z,83.50
2019-01-31T21:58:40.478Z,83.40
2019-01-31T22:01:01.905Z,83.40
2019-01-31T22:03:24.589Z,83.50
2019-01-31T22:05:45.841Z,83.40
2019-01-31T22:08:07.030Z,83.70
2019-01-31T22:10:50.094Z,83.40
2019-01-31T22:13:11.285Z,83.20
2019-01-31T22:15:33.777Z,83.50
2019-01-31T22:17:58.032Z,83.60
2019-01-31T22:20:18.233Z,83.70
2019-01-31T22:22:39.762Z,83.00
2019-01-31T22:25:01.086Z,83.30
2019-01-31T22:27:22.314Z,83.00
2019-01-31T22:29:43.553Z,83.50
2019-01-31T22:32:04.760Z,82.90
2019-01-31T22:34:26.370Z,82.50
2019-01-31T22:36:48.751Z,82.30
2019-01-31T22:39:23.884Z,82.10
2019-01-31T22:41:45.739Z,81.80
2019-01-31T22:44:07.117Z,81.60
2019-01-31T22:46:28.340Z,82.10
2019-01-31T22:48:49.854Z,81.70
2019-01-31T22:51:11.062Z,81.40
2019-01-31T22:53:32.266Z,80.50
2019-01-31T22:55:53.468Z,80.30
2019-01-31T22:58:14.681Z,79.50
2019-01-31T23:00:49.881Z,79.10
2019-01-31T23:03:11.087Z,78.80
2019-01-31T23:05:32.294Z,79.40
2019-01-31T23:07:53.678Z,79.20
2019-01-31T23:10:14.898Z,78.60
2019-01-31T23:12:36.199Z,78.40
2019-01-31T23:14:57.397Z,77.40
2019-01-31T23:17:18.594Z,77.50
2019-01-31T23:19:39.815Z,77.10
2019-01-31T23:22:01.105Z,77.40
2019-01-31T23:24:22.296Z,76.90
2019-01-31T23:26:43.514Z,76.60
2019-01-31T23:29:04.711Z,76.40
2019-01-31T23:31:25.917Z,76.70
2019-01-31T23:33:47.103Z,76.40
2019-01-31T23:36:08.555Z,76.40
2019-01-31T23:38:29.751Z,76.20
2019-01-31T23:40:50.950Z,76.60
2019-01-31T23:43:12.138Z,76.30
2019-01-31T23:45:33.370Z,76.00
2019-01-31T23:47:54.637Z,76.20
2019-01-31T23:50:15.903Z,76.30
2019-01-31T23:52:37.163Z,76.40
2019-01-31T23:54:58.354Z,76.40
2019-01-31T23:57:19.563Z,76.80
2019-01-31T23:59:40.769Z,77.10
